Archiv-/Tagesdaten

--Timestamp---	Temp	Chill	HIndex	Humid	Dewpt	Wind	HiWind	WindDir	Rain	Barom	Solar	ET	UV
--------------	----	-----	------	-----	-----	----	------	-------	----	-----	-----	--	--
20080114 00:05	0.3	0.3	0.3	92	-0.9	2	6	225	0.00	1015.649	0	0.000	0
20080114 00:10	0.2	0.2	0.2	92	-0.9	2	6	180	0.00	1015.615	0	0.000	0
20080114 00:15	0.2	0.2	0.2	92	-1.0	2	8	180	0.00	1015.649	0	0.000	0
20080114 00:20	0.1	0.1	0.1	92	-1.0	0	5	180	0.00	1015.547	0	0.000	0
20080114 00:25	0.1	0.1	0.1	93	-0.9	0	2	180	0.00	1015.445	0	0.000	0
20080114 00:30	0.1	0.1	0.1	93	-0.9	0	5	180	0.00	1015.411	0	0.000	0
20080114 00:35	0.1	0.1	0.1	93	-0.9	2	5	180	0.00	1015.378	0	0.000	0
20080114 00:40	0.1	0.1	0.1	93	-0.9	0	5	157	0.00	1015.242	0	0.000	0
20080114 00:45	0.0	0.0	0.0	93	-1.0	0	3	157	0.00	1015.208	0	0.000	0
20080114 00:50	-0.1	-0.1	-0.1	93	-1.0	2	6	180	0.00	1015.276	0	0.000	0
20080114 00:55	-0.1	-0.1	-0.1	93	-1.0	0	2	180	0.00	1015.276	0	0.000	0
20080114 01:00	-0.1	-0.1	-0.1	93	-1.0	2	10	180	0.00	1015.208	0	0.000	0
20080114 01:05	-0.1	-0.1	-0.1	93	-1.1	0	2	180	0.00	1015.378	0	0.000	0
20080114 01:10	-0.1	-0.1	-0.1	93	-1.1	0	2	180	0.00	1015.344	0	0.000	0
20080114 01:15	-0.1	-0.1	-0.1	93	-1.1	0	3	157	0.00	1015.310	0	0.000	0
20080114 01:20	-0.2	-0.2	-0.2	93	-1.2	0	3	157	0.00	1015.208	0	0.000	0
20080114 01:25	-0.2	-0.2	-0.2	93	-1.2	0	5	157	0.00	1015.174	0	0.000	0
20080114 01:30	-0.2	-0.2	-0.2	93	-1.2	0	3	157	0.00	1015.242	0	0.000	0
20080114 01:35	-0.2	-0.2	-0.2	93	-1.2	0	2	157	0.00	1015.208	0	0.000	0
20080114 01:40	-0.3	-0.3	-0.3	93	-1.3	0	3	157	0.00	1015.174	0	0.000	0
20080114 01:45	-0.3	-0.3	-0.3	94	-1.2	0	5	157	0.00	1015.174	0	0.000	0
20080114 01:50	-0.4	-0.4	-0.4	94	-1.3	0	3	157	0.00	1015.073	0	0.000	0
20080114 01:55	-0.5	-0.5	-0.5	93	-1.5	2	6	157	0.00	1015.073	0	0.000	0
20080114 02:00	-0.7	-0.7	-0.7	94	-1.5	3	8	157	0.00	1015.107	0	0.000	0
20080114 02:05	-0.7	-0.7	-0.7	94	-1.6	2	8	202	0.00	1015.174	0	0.000	0
20080114 02:10	-0.7	-0.7	-0.7	94	-1.6	2	6	202	0.00	1015.174	0	0.000	0
20080114 02:15	-0.8	-0.8	-0.8	94	-1.6	2	6	225	0.00	1015.174	0	0.000	0
20080114 02:20	-0.8	-0.8	-0.8	94	-1.7	2	5	225	0.00	1015.174	0	0.000	0
20080114 02:25	-0.9	-0.9	-0.9	94	-1.7	0	3	225	0.00	1015.107	0	0.000	0
20080114 02:30	-0.9	-0.9	-0.9	94	-1.7	2	8	225	0.00	1015.073	0	0.000	0
20080114 02:35	-1.0	-1.0	-1.0	94	-1.8	0	5	225	0.00	1015.005	0	0.000	0
20080114 02:40	-1.1	-1.1	-1.1	94	-1.9	0	3	225	0.00	1014.937	0	0.000	0
20080114 02:45	-1.1	-1.1	-1.1	94	-1.9	0	5	225	0.00	1015.073	0	0.000	0
20080114 02:50	-1.1	-1.1	-1.1	94	-2.0	2	6	225	0.00	1015.005	0	0.000	0
20080114 02:55	-1.1	-1.1	-1.1	94	-2.0	0	2	225	0.00	1014.870	0	0.000	0
20080114 03:00	-1.1	-1.1	-1.1	94	-2.0	3	6	157	0.00	1014.836	0	0.000	0
20080114 03:05	-1.1	-1.1	-1.1	94	-2.0	3	6	157	0.00	1014.870	0	0.000	0
20080114 03:10	-1.2	-1.2	-1.2	94	-2.0	3	6	157	0.00	1014.802	0	0.000	0
20080114 03:15	-1.2	-1.2	-1.2	94	-2.0	2	6	157	0.00	1014.870	0	0.000	0
20080114 03:20	-1.2	-1.2	-1.2	94	-2.0	2	6	135	0.00	1014.904	0	0.000	0
20080114 03:25	-1.2	-1.2	-1.2	94	-2.1	2	6	135	0.00	1014.904	0	0.000	0
20080114 03:30	-1.2	-1.2	-1.2	94	-2.0	2	6	135	0.00	1014.937	0	0.000	0
20080114 03:35	-1.2	-1.2	-1.2	94	-2.1	2	5	135	0.00	1014.904	0	0.000	0
20080114 03:40	-1.2	-1.2	-1.2	94	-2.0	2	6	225	0.00	1014.904	0	0.000	0
20080114 03:45	-1.2	-1.2	-1.2	94	-2.0	0	5	202	0.00	1014.870	0	0.000	0
20080114 03:50	-1.2	-1.2	-1.2	94	-2.0	3	8	157	0.00	1014.802	0	0.000	0
20080114 03:55	-1.2	-1.2	-1.2	94	-2.0	2	8	135	0.00	1014.734	0	0.000	0
20080114 04:00	-1.2	-1.2	-1.2	95	-1.9	2	3	157	0.00	1014.904	0	0.000	0
20080114 04:05	-1.3	-1.3	-1.3	95	-2.0	2	5	157	0.00	1014.870	0	0.000	0
20080114 04:10	-1.3	-1.3	-1.3	94	-2.2	2	5	157	0.00	1014.870	0	0.000	0
20080114 04:15	-1.3	-1.3	-1.3	94	-2.2	0	5	157	0.00	1014.971	0	0.000	0
20080114 04:20	-1.4	-1.4	-1.4	94	-2.2	0	5	157	0.00	1014.870	0	0.000	0
20080114 04:25	-1.4	-1.4	-1.4	95	-2.1	0	0	157	0.00	1014.836	0	0.000	0
20080114 04:30	-1.4	-1.4	-1.4	95	-2.1	0	0	157	0.00	1014.802	0	0.000	0
20080114 04:35	-1.4	-1.4	-1.4	95	-2.1	0	3	157	0.00	1014.666	0	0.000	0
20080114 04:40	-1.3	-1.3	-1.3	95	-2.0	2	3	157	0.00	1014.599	0	0.000	0
20080114 04:45	-1.3	-1.3	-1.3	95	-2.0	3	5	157	0.00	1014.463	0	0.000	0
20080114 04:50	-1.3	-1.3	-1.3	95	-2.0	2	5	157	0.00	1014.531	0	0.000	0
20080114 04:55	-1.4	-1.4	-1.4	95	-2.1	0	3	157	0.00	1014.565	0	0.000	0
20080114 05:00	-1.4	-1.4	-1.4	95	-2.1	0	3	157	0.00	1014.734	0	0.000	0
20080114 05:05	-1.4	-1.4	-1.4	95	-2.1	0	3	157	0.00	1014.768	0	0.000	0
20080114 05:10	-1.4	-1.4	-1.4	95	-2.1	0	2	157	0.00	1014.768	0	0.000	0
20080114 05:15	-1.5	-1.5	-1.5	95	-2.2	0	3	157	0.00	1014.700	0	0.000	0
20080114 05:20	-1.5	-1.5	-1.5	95	-2.2	0	0	157	0.00	1014.700	0	0.000	0
20080114 05:25	-1.4	-1.4	-1.4	95	-2.1	0	0	157	0.00	1014.734	0	0.000	0
20080114 05:30	-1.4	-1.4	-1.4	95	-2.1	0	2	157	0.00	1014.734	0	0.000	0
20080114 05:35	-1.4	-1.4	-1.4	95	-2.1	0	3	157	0.00	1014.666	0	0.000	0
20080114 05:40	-1.4	-1.4	-1.4	95	-2.1	0	2	157	0.00	1014.700	0	0.000	0
20080114 05:45	-1.4	-1.4	-1.4	95	-2.1	0	3	157	0.00	1014.633	0	0.000	0
20080114 05:50	-1.5	-1.5	-1.5	95	-2.2	2	5	157	0.00	1014.633	0	0.000	0
20080114 05:55	-1.5	-1.5	-1.5	95	-2.2	2	6	157	0.00	1014.633	0	0.000	0
20080114 06:00	-1.6	-1.6	-1.6	95	-2.3	2	5	157	0.00	1014.531	0	0.000	0
20080114 06:05	-1.6	-1.6	-1.6	95	-2.3	0	3	157	0.00	1014.497	0	0.000	0
20080114 06:10	-1.6	-1.6	-1.6	95	-2.3	0	5	157	0.00	1014.531	0	0.000	0
20080114 06:15	-1.6	-1.6	-1.6	95	-2.3	0	3	157	0.00	1014.531	0	0.000	0
20080114 06:20	-1.6	-1.6	-1.6	95	-2.3	0	3	157	0.00	1014.497	0	0.000	0
20080114 06:25	-1.6	-1.6	-1.6	95	-2.3	0	3	157	0.00	1014.531	0	0.000	0
20080114 06:30	-1.6	-1.6	-1.6	95	-2.3	0	3	157	0.00	1014.531	0	0.000	0
20080114 06:35	-1.6	-1.6	-1.6	95	-2.3	0	3	157	0.00	1014.565	0	0.000	0
20080114 06:40	-1.7	-1.7	-1.7	95	-2.4	2	5	157	0.00	1014.531	0	0.000	0
20080114 06:45	-1.6	-1.6	-1.6	95	-2.3	2	3	157	0.00	1014.497	0	0.000	0
20080114 06:50	-1.6	-1.6	-1.6	95	-2.3	3	10	157	0.00	1014.531	0	0.000	0
20080114 06:55	-1.7	-1.7	-1.7	95	-2.4	3	6	135	0.00	1014.531	0	0.000	0
20080114 07:00	-1.7	-1.7	-1.7	95	-2.4	2	3	135	0.00	1014.599	0	0.000	0
20080114 07:05	-1.7	-1.7	-1.7	95	-2.4	2	5	135	0.00	1014.700	0	0.000	0
20080114 07:10	-1.7	-1.7	-1.7	95	-2.4	0	3	135	0.00	1014.666	0	0.000	0
20080114 07:15	-1.7	-1.7	-1.7	95	-2.4	0	3	135	0.00	1014.599	0	0.000	0
20080114 07:20	-1.7	-1.7	-1.7	95	-2.4	2	5	157	0.00	1014.396	0	0.000	0
20080114 07:25	-1.7	-1.7	-1.7	95	-2.4	2	6	157	0.00	1014.362	0	0.000	0
20080114 07:30	-1.7	-1.7	-1.7	95	-2.4	2	6	157	0.00	1014.362	0	0.000	0
20080114 07:35	-1.8	-1.8	-1.8	95	-2.5	0	2	157	0.00	1014.565	0	0.000	0
20080114 07:40	-1.7	-1.7	-1.7	95	-2.4	0	2	157	0.00	1014.700	0	0.000	0
20080114 07:45	-1.7	-1.7	-1.7	95	-2.4	0	3	157	0.00	1014.734	0	0.000	0
20080114 07:50	-1.7	-1.7	-1.7	95	-2.4	0	3	157	0.00	1014.768	0	0.000	0
20080114 07:55	-1.7	-1.7	-1.7	95	-2.4	0	2	157	0.00	1014.836	0	0.000	0
20080114 08:00	-1.7	-1.7	-1.7	95	-2.4	0	3	157	0.00	1014.768	0	0.000	0
20080114 08:05	-1.6	-1.6	-1.6	95	-2.3	0	3	157	0.00	1014.802	0	0.000	0
20080114 08:10	-1.7	-1.7	-1.7	95	-2.4	2	3	157	0.00	1014.734	0	0.000	0
20080114 08:15	-1.6	-1.6	-1.6	95	-2.3	2	6	157	0.00	1014.768	4	0.000	0
20080114 08:20	-1.6	-1.6	-1.6	95	-2.3	0	2	157	0.00	1014.802	7	0.000	0
20080114 08:25	-1.6	-1.6	-1.6	95	-2.3	0	5	157	0.00	1014.802	11	0.000	0
20080114 08:30	-1.6	-1.6	-1.6	95	-2.3	0	5	157	0.00	1014.802	14	0.000	0
20080114 08:35	-1.6	-1.6	-1.6	95	-2.3	0	3	157	0.00	1014.802	14	0.000	0
20080114 08:40	-1.6	-1.6	-1.6	95	-2.3	0	3	157	0.00	1014.734	18	0.000	0
20080114 08:45	-1.6	-1.6	-1.6	95	-2.3	0	3	157	0.00	1014.734	20	0.000	0
20080114 08:50	-1.6	-1.6	-1.6	95	-2.3	0	2	157	0.00	1014.836	20	0.000	0
20080114 08:55	-1.6	-1.6	-1.6	95	-2.3	2	5	157	0.00	1014.937	24	0.000	0
20080114 09:00	-1.7	-1.7	-1.7	95	-2.4	2	8	202	0.00	1014.971	24	0.000	0
20080114 09:05	-1.7	-1.7	-1.7	95	-2.4	2	6	202	0.00	1014.971	23	0.000	0
20080114 09:10	-1.7	-1.7	-1.7	95	-2.4	2	6	202	0.00	1014.971	29	0.000	0
20080114 09:15	-1.7	-1.7	-1.7	95	-2.4	0	5	202	0.00	1014.971	41	0.000	0
20080114 09:20	-1.8	-1.8	-1.8	95	-2.5	0	2	202	0.00	1015.107	52	0.000	0
20080114 09:25	-1.7	-1.7	-1.7	95	-2.4	0	0	202	0.00	1015.141	55	0.000	0
20080114 09:30	-1.7	-1.7	-1.7	95	-2.4	0	2	202	0.00	1015.141	60	0.000	0
20080114 09:35	-1.7	-1.7	-1.7	95	-2.4	0	3	202	0.00	1015.310	62	0.000	0
20080114 09:40	-1.6	-1.6	-1.6	95	-2.3	3	6	247	0.00	1015.513	43	0.000	0
20080114 09:45	-1.6	-4.0	-1.6	95	-2.3	6	11	292	0.00	1015.716	41	0.000	0
20080114 09:50	-1.6	-1.6	-1.6	95	-2.3	3	8	270	0.00	1015.852	45	0.000	0
20080114 09:55	-1.7	-1.7	-1.7	95	-2.4	3	6	270	0.00	1015.886	34	0.000	0
20080114 10:00	-1.7	-1.7	-1.7	95	-2.4	3	10	247	0.00	1015.886	35	0.020	0
20080114 10:05	-1.6	-1.6	-1.6	95	-2.3	5	10	270	0.00	1015.886	35	0.000	0
20080114 10:10	-1.6	-1.6	-1.6	95	-2.3	2	6	292	0.00	1015.953	36	0.000	0
20080114 10:15	-1.6	-1.6	-1.6	95	-2.3	3	8	292	0.00	1016.089	51	0.000	0
20080114 10:20	-1.5	-1.5	-1.5	95	-2.2	2	5	292	0.00	1016.021	67	0.000	0
20080114 10:25	-1.5	-1.5	-1.5	95	-2.2	2	6	292	0.00	1016.089	65	0.000	0
20080114 10:30	-1.5	-1.5	-1.5	95	-2.2	2	6	292	0.00	1016.190	69	0.000	0
20080114 10:35	-1.4	-1.4	-1.4	95	-2.1	3	10	292	0.00	1016.089	73	0.000	0
20080114 10:40	-1.4	-1.4	-1.4	95	-2.1	3	8	292	0.00	1016.292	66	0.000	0
20080114 10:45	-1.4	-1.4	-1.4	95	-2.1	5	11	292	0.00	1016.258	58	0.000	0
20080114 10:50	-1.3	-1.3	-1.3	95	-2.0	5	8	292	0.00	1016.292	76	0.000	0
20080114 10:55	-1.4	-1.4	-1.4	95	-2.1	5	8	292	0.00	1016.224	66	0.000	0
20080114 11:00	-1.3	-1.3	-1.3	95	-2.0	3	6	292	0.00	1016.258	54	0.020	0
20080114 11:05	-1.3	-1.3	-1.3	95	-2.0	5	8	292	0.00	1016.224	56	0.000	0
20080114 11:10	-1.3	-1.3	-1.3	95	-2.0	3	10	292	0.00	1016.224	62	0.000	0
20080114 11:15	-1.3	-1.3	-1.3	95	-2.0	3	5	292	0.00	1016.258	64	0.000	0
20080114 11:20	-1.3	-1.3	-1.3	95	-2.0	2	3	292	0.00	1016.123	75	0.000	0
20080114 11:25	-1.3	-1.3	-1.3	95	-2.0	3	6	270	0.00	1016.156	71	0.000	0
20080114 11:30	-1.3	-1.3	-1.3	95	-2.0	2	6	270	0.00	1016.089	79	0.000	0
20080114 11:35	-1.3	-1.3	-1.3	95	-2.0	2	5	247	0.00	1016.055	75	0.000	0
20080114 11:40	-1.3	-1.3	-1.3	95	-2.0	2	5	247	0.00	1016.123	74	0.000	0
20080114 11:45	-1.3	-1.3	-1.3	95	-2.0	3	6	247	0.00	1016.156	76	0.000	0
20080114 11:50	-1.3	-1.3	-1.3	95	-2.0	3	8	225	0.00	1016.123	88	0.000	0
20080114 11:55	-1.3	-1.3	-1.3	95	-2.0	3	6	247	0.00	1016.089	90	0.000	0
20080114 12:00	-1.3	-1.3	-1.3	95	-2.0	5	8	270	0.00	1016.055	77	0.020	0
20080114 12:05	-1.3	-1.3	-1.3	95	-2.0	5	10	270	0.00	1015.953	71	0.000	0
20080114 12:10	-1.3	-1.3	-1.3	95	-2.0	3	8	270	0.00	1015.919	71	0.000	0
20080114 12:15	-1.2	-1.2	-1.2	95	-1.9	2	5	270	0.00	1015.919	72	0.000	0
20080114 12:20	-1.1	-1.1	-1.1	95	-1.8	2	5	270	0.00	1015.886	71	0.000	0
20080114 12:25	-1.0	-1.0	-1.0	95	-1.7	2	6	270	0.00	1015.852	79	0.000	0
20080114 12:30	-0.9	-0.9	-0.9	95	-1.6	2	5	270	0.00	1015.886	86	0.000	0
20080114 12:35	-0.8	-0.8	-0.8	95	-1.5	3	8	270	0.00	1015.919	93	0.000	0
20080114 12:40	-0.8	-0.8	-0.8	95	-1.5	3	6	225	0.00	1015.818	106	0.000	0
20080114 12:45	-0.7	-0.7	-0.7	95	-1.4	3	8	270	0.00	1015.886	105	0.000	0
20080114 12:50	-0.6	-0.6	-0.6	95	-1.3	3	8	247	0.00	1015.750	109	0.000	0
20080114 12:55	-0.5	-0.5	-0.5	95	-1.2	2	6	247	0.00	1015.750	111	0.000	0
20080114 13:00	-0.4	-0.4	-0.4	95	-1.1	3	6	247	0.00	1015.649	112	0.020	0
20080114 13:05	-0.4	-0.4	-0.4	95	-1.1	2	5	247	0.00	1015.581	119	0.000	0
20080114 13:10	-0.3	-0.3	-0.3	95	-1.0	0	3	247	0.00	1015.479	123	0.000	0
20080114 13:15	-0.2	-0.2	-0.2	95	-0.9	0	2	247	0.00	1015.581	116	0.000	0
20080114 13:20	-0.2	-0.2	-0.2	95	-0.9	0	5	247	0.00	1015.513	120	0.000	0
20080114 13:25	-0.1	-0.1	-0.1	95	-0.8	2	5	247	0.00	1015.445	128	0.000	0
20080114 13:30	0.1	0.1	0.1	95	-0.6	2	5	247	0.00	1015.479	153	0.000	0
20080114 13:35	0.2	0.2	0.2	95	-0.5	2	8	247	0.00	1015.411	159	0.000	0
20080114 13:40	0.3	0.3	0.3	95	-0.4	2	3	247	0.00	1015.276	152	0.000	0
20080114 13:45	0.4	0.4	0.4	95	-0.3	2	6	247	0.00	1015.276	140	0.000	0
20080114 13:50	0.4	0.4	0.4	95	-0.3	3	8	270	0.00	1015.310	131	0.000	0
20080114 13:55	0.4	0.4	0.4	95	-0.3	3	8	270	0.00	1015.310	120	0.000	0
20080114 14:00	0.4	0.4	0.4	95	-0.3	3	6	292	0.00	1015.310	113	0.040	0
20080114 14:05	0.4	0.4	0.4	94	-0.4	3	6	315	0.00	1015.445	105	0.000	0
20080114 14:10	0.4	0.4	0.4	94	-0.4	5	8	292	0.00	1015.411	100	0.000	0
20080114 14:15	0.4	0.4	0.4	94	-0.4	5	6	292	0.00	1015.445	97	0.000	0
20080114 14:20	0.4	0.4	0.4	94	-0.4	2	6	292	0.00	1015.513	95	0.000	0
20080114 14:25	0.4	0.4	0.4	94	-0.4	5	8	315	0.00	1015.547	93	0.000	0
20080114 14:30	0.4	0.4	0.4	94	-0.4	3	8	292	0.00	1015.547	89	0.000	0
20080114 14:35	0.4	0.4	0.4	94	-0.4	3	6	292	0.00	1015.649	84	0.000	0
20080114 14:40	0.4	0.4	0.4	94	-0.4	0	5	315	0.00	1015.547	81	0.000	0
20080114 14:45	0.4	0.4	0.4	93	-0.6	0	2	315	0.00	1015.479	77	0.000	0
20080114 14:50	0.4	0.4	0.4	93	-0.6	0	0	315	0.00	1015.513	74	0.000	0
20080114 14:55	0.4	0.4	0.4	93	-0.6	0	2	315	0.00	1015.445	71	0.000	0
20080114 15:00	0.4	0.4	0.4	93	-0.6	0	0	315	0.00	1015.479	69	0.020	0
20080114 15:05	0.4	0.4	0.4	93	-0.6	0	0	315	0.00	1015.479	64	0.000	0
20080114 15:10	0.4	0.4	0.4	93	-0.6	0	2	315	0.00	1015.479	61	0.000	0
20080114 15:15	0.4	0.4	0.4	93	-0.6	0	0	315	0.00	1015.445	58	0.000	0
20080114 15:20	0.4	0.4	0.4	93	-0.6	0	2	315	0.00	1015.445	56	0.000	0
20080114 15:25	0.4	0.4	0.4	93	-0.6	0	2	315	0.00	1015.513	54	0.000	0
20080114 15:30	0.3	0.3	0.3	92	-0.8	0	0	315	0.00	1015.513	50	0.000	0
20080114 15:35	0.3	0.3	0.3	92	-0.8	0	3	315	0.00	1015.547	42	0.000	0
20080114 15:40	0.3	0.3	0.3	93	-0.7	0	0	315	0.00	1015.649	34	0.000	0
20080114 15:45	0.3	0.3	0.3	93	-0.7	0	0	315	0.00	1015.649	28	0.000	0
20080114 15:50	0.3	0.3	0.3	93	-0.7	0	0	315	0.00	1015.682	25	0.000	0
20080114 15:55	0.3	0.3	0.3	92	-0.9	0	2	315	0.00	1015.682	23	0.000	0
20080114 16:00	0.2	0.2	0.2	92	-0.9	0	2	315	0.00	1015.682	25	0.020	0
20080114 16:05	0.2	0.2	0.2	93	-0.8	0	0	315	0.00	1015.784	25	0.000	0
20080114 16:10	0.2	0.2	0.2	93	-0.8	0	2	315	0.00	1015.784	24	0.000	0
20080114 16:15	0.2	0.2	0.2	93	-0.8	0	3	315	0.00	1015.750	20	0.000	0
20080114 16:20	0.1	0.1	0.1	93	-0.9	0	0	315	0.00	1015.649	16	0.000	0
20080114 16:25	0.1	0.1	0.1	93	-0.9	0	0	315	0.00	1015.682	13	0.000	0
20080114 16:30	0.0	0.0	0.0	93	-1.0	0	2	315	0.00	1015.649	9	0.000	0
20080114 16:35	-0.1	-0.1	-0.1	93	-1.0	0	2	315	0.00	1015.682	6	0.000	0
20080114 16:40	-0.1	-0.1	-0.1	93	-1.1	0	0	315	0.00	1015.716	0	0.000	0
20080114 16:45	-0.2	-0.2	-0.2	93	-1.2	0	3	315	0.00	1015.716	0	0.000	0
20080114 16:50	-0.3	-0.3	-0.3	93	-1.3	0	2	315	0.00	1015.682	0	0.000	0
20080114 16:55	-0.3	-0.3	-0.3	93	-1.3	0	2	315	0.00	1015.784	0	0.000	0
20080114 17:00	-0.4	-0.4	-0.4	93	-1.4	0	2	315	0.00	1015.784	0	0.000	0
20080114 17:05	-0.5	-0.5	-0.5	93	-1.5	0	2	315	0.00	1015.818	0	0.000	0
20080114 17:10	-0.6	-0.6	-0.6	93	-1.5	0	3	202	0.00	1015.750	0	0.000	0
20080114 17:15	-0.6	-0.6	-0.6	93	-1.5	0	5	202	0.00	1015.716	0	0.000	0
20080114 17:20	-0.6	-0.6	-0.6	93	-1.6	2	5	202	0.00	1015.682	0	0.000	0
20080114 17:25	-0.6	-0.6	-0.6	93	-1.6	2	5	202	0.00	1015.682	0	0.000	0
20080114 17:30	-0.7	-0.7	-0.7	93	-1.7	3	5	202	0.00	1015.750	0	0.000	0
20080114 17:35	-0.7	-0.7	-0.7	93	-1.7	2	5	202	0.00	1015.784	0	0.000	0
20080114 17:40	-0.7	-0.7	-0.7	94	-1.5	3	5	202	0.00	1015.716	0	0.000	0
20080114 17:45	-0.7	-0.7	-0.7	94	-1.6	2	5	202	0.00	1015.682	0	0.000	0
20080114 17:50	-0.7	-0.7	-0.7	94	-1.6	0	0	202	0.00	1015.784	0	0.000	0
20080114 17:55	-0.8	-0.8	-0.8	93	-1.8	0	2	202	0.00	1015.750	0	0.000	0
20080114 18:00	-0.8	-0.8	-0.8	93	-1.8	2	5	202	0.00	1015.818	0	0.000	0
20080114 18:05	-0.8	-0.8	-0.8	94	-1.6	0	5	202	0.00	1015.784	0	0.000	0
20080114 18:10	-0.8	-0.8	-0.8	94	-1.6	0	3	202	0.00	1015.716	0	0.000	0
20080114 18:15	-0.8	-0.8	-0.8	94	-1.6	0	0	202	0.00	1015.886	0	0.000	0
20080114 18:20	-0.8	-0.8	-0.8	94	-1.6	0	0	202	0.00	1015.919	0	0.000	0
20080114 18:25	-0.8	-0.8	-0.8	94	-1.6	0	3	202	0.00	1015.987	0	0.000	0
20080114 18:30	-0.8	-0.8	-0.8	94	-1.6	3	5	202	0.00	1015.987	0	0.000	0
20080114 18:35	-0.7	-0.7	-0.7	94	-1.6	2	5	202	0.00	1015.919	0	0.000	0
20080114 18:40	-0.8	-0.8	-0.8	94	-1.6	2	5	202	0.00	1015.886	0	0.000	0
20080114 18:45	-0.8	-0.8	-0.8	94	-1.6	3	5	202	0.00	1015.919	0	0.000	0
20080114 18:50	-0.8	-0.8	-0.8	94	-1.7	0	2	202	0.00	1015.953	0	0.000	0
20080114 18:55	-0.8	-0.8	-0.8	94	-1.7	2	5	202	0.00	1015.919	0	0.000	0
20080114 19:00	-0.8	-0.8	-0.8	94	-1.7	2	3	202	0.00	1015.953	0	0.000	0
20080114 19:05	-0.8	-0.8	-0.8	94	-1.7	3	5	202	0.00	1015.886	0	0.000	0
20080114 19:10	-0.8	-0.8	-0.8	94	-1.7	2	5	202	0.00	1015.784	0	0.000	0
20080114 19:15	-0.9	-0.9	-0.9	94	-1.7	2	3	202	0.00	1015.784	0	0.000	0
20080114 19:20	-0.9	-0.9	-0.9	94	-1.7	2	5	202	0.00	1015.852	0	0.000	0
20080114 19:25	-0.9	-0.9	-0.9	94	-1.7	2	3	202	0.00	1015.886	0	0.000	0
20080114 19:30	-0.9	-0.9	-0.9	94	-1.7	2	6	180	0.00	1015.818	0	0.000	0
20080114 19:35	-0.8	-0.8	-0.8	94	-1.7	5	6	180	0.00	1015.818	0	0.000	0
20080114 19:40	-0.9	-0.9	-0.9	94	-1.7	2	5	157	0.00	1015.852	0	0.000	0
20080114 19:45	-0.9	-0.9	-0.9	94	-1.7	2	5	157	0.00	1015.886	0	0.000	0
20080114 19:50	-0.9	-0.9	-0.9	94	-1.8	0	3	157	0.00	1015.919	0	0.000	0
20080114 19:55	-0.9	-0.9	-0.9	94	-1.8	2	5	157	0.00	1015.818	0	0.000	0
20080114 20:00	-1.0	-1.0	-1.0	94	-1.8	0	3	157	0.00	1015.784	0	0.000	0
20080114 20:05	-1.0	-1.0	-1.0	94	-1.8	2	5	157	0.00	1015.716	0	0.000	0
20080114 20:10	-1.1	-1.1	-1.1	94	-1.9	2	5	157	0.00	1015.615	0	0.000	0
20080114 20:15	-1.1	-1.1	-1.1	94	-1.9	2	3	157	0.00	1015.716	0	0.000	0
20080114 20:20	-1.1	-1.1	-1.1	94	-1.9	2	5	157	0.00	1015.784	0	0.000	0
20080114 20:25	-1.1	-1.1	-1.1	93	-2.1	0	3	157	0.00	1015.919	0	0.000	0
20080114 20:30	-1.2	-1.2	-1.2	93	-2.2	0	3	157	0.00	1015.953	0	0.000	0
20080114 20:35	-1.2	-1.2	-1.2	93	-2.2	0	3	157	0.00	1015.953	0	0.000	0
20080114 20:40	-1.2	-1.2	-1.2	93	-2.2	2	3	157	0.00	1015.919	0	0.000	0
20080114 20:45	-1.3	-1.3	-1.3	93	-2.3	0	3	157	0.00	1015.919	0	0.000	0
20080114 20:50	-1.3	-1.3	-1.3	93	-2.3	0	2	157	0.00	1015.953	0	0.000	0
20080114 20:55	-1.3	-1.3	-1.3	93	-2.3	2	3	157	0.00	1016.089	0	0.000	0
20080114 21:00	-1.4	-1.4	-1.4	93	-2.4	0	0	157	0.00	1016.190	0	0.000	0
20080114 21:05	-1.4	-1.4	-1.4	93	-2.4	0	2	157	0.00	1016.224	0	0.000	0
20080114 21:10	-1.4	-1.4	-1.4	93	-2.4	0	0	157	0.00	1016.224	0	0.000	0
20080114 21:15	-1.4	-1.4	-1.4	93	-2.4	0	2	157	0.00	1016.258	0	0.000	0
20080114 21:20	-1.4	-1.4	-1.4	93	-2.4	2	5	157	0.00	1016.123	0	0.000	0
20080114 21:25	-1.5	-1.5	-1.5	93	-2.5	2	5	157	0.00	1016.258	0	0.000	0
20080114 21:30	-1.6	-1.6	-1.6	93	-2.6	2	5	157	0.00	1016.326	0	0.000	0
20080114 21:35	-1.7	-1.7	-1.7	93	-2.7	3	5	157	0.00	1016.427	0	0.000	0
20080114 21:40	-1.8	-1.8	-1.8	93	-2.8	2	5	157	0.00	1016.394	0	0.000	0
20080114 21:45	-1.8	-1.8	-1.8	94	-2.7	0	3	157	0.00	1016.360	0	0.000	0
20080114 21:50	-1.8	-1.8	-1.8	94	-2.7	0	3	157	0.00	1016.292	0	0.000	0
20080114 21:55	-1.8	-1.8	-1.8	94	-2.7	3	6	157	0.00	1016.123	0	0.000	0
20080114 22:00	-1.8	-1.8	-1.8	94	-2.7	2	5	157	0.00	1016.292	0	0.000	0
20080114 22:05	-1.8	-1.8	-1.8	94	-2.7	0	3	157	0.00	1016.360	0	0.000	0
20080114 22:10	-1.8	-1.8	-1.8	94	-2.7	0	2	157	0.00	1016.360	0	0.000	0
20080114 22:15	-1.9	-1.9	-1.9	94	-2.7	0	0	157	0.00	1016.360	0	0.000	0
20080114 22:20	-2.0	-2.0	-2.0	94	-2.8	0	2	157	0.00	1016.495	0	0.000	0
20080114 22:25	-2.1	-2.1	-2.1	94	-2.9	2	5	157	0.00	1016.495	0	0.000	0
20080114 22:30	-2.1	-2.1	-2.1	94	-2.9	0	2	135	0.00	1016.427	0	0.000	0
20080114 22:35	-2.1	-2.1	-2.1	94	-2.9	0	3	135	0.00	1016.427	0	0.000	0
20080114 22:40	-2.1	-2.1	-2.1	94	-2.9	0	2	135	0.00	1016.461	0	0.000	0
20080114 22:45	-2.1	-2.1	-2.1	94	-2.9	2	3	135	0.00	1016.495	0	0.000	0
20080114 22:50	-2.1	-2.1	-2.1	94	-2.9	2	3	135	0.00	1016.461	0	0.000	0
20080114 22:55	-2.2	-2.2	-2.2	94	-3.0	0	5	135	0.00	1016.326	0	0.000	0
20080114 23:00	-2.2	-2.2	-2.2	94	-3.1	2	5	135	0.00	1016.427	0	0.000	0
20080114 23:05	-2.2	-2.2	-2.2	95	-2.9	2	5	135	0.00	1016.495	0	0.000	0
20080114 23:10	-2.2	-2.2	-2.2	95	-2.9	0	3	135	0.00	1016.631	0	0.000	0
20080114 23:15	-2.2	-2.2	-2.2	95	-2.9	0	2	135	0.00	1016.631	0	0.000	0
20080114 23:20	-2.2	-2.2	-2.2	94	-3.1	0	3	135	0.00	1016.800	0	0.000	0
20080114 23:25	-2.3	-2.3	-2.3	95	-3.0	2	5	135	0.00	1016.766	0	0.000	0
20080114 23:30	-2.3	-2.3	-2.3	94	-3.1	0	3	135	0.00	1016.732	0	0.000	0
20080114 23:35	-2.3	-2.3	-2.3	95	-3.0	0	3	135	0.00	1016.800	0	0.000	0
20080114 23:40	-2.3	-2.3	-2.3	95	-3.0	0	0	135	0.00	1016.732	0	0.000	0
20080114 23:45	-2.3	-2.3	-2.3	95	-3.0	0	3	135	0.00	1016.698	0	0.000	0
20080114 23:50	-2.3	-2.3	-2.3	95	-3.0	0	2	135	0.00	1016.664	0	0.000	0
20080114 23:55	-2.3	-2.3	-2.3	95	-3.0	0	0	135	0.00	1016.664	0	0.000	0
20080114 24:00	-2.3	-2.3	-2.3	95	-3.0	0	0	135	0.00	1016.698	0	0.000	0



Please note the license to use and transfer of this data:
http://creativecommons.org/licenses/by-nc-sa/3.0/deed.en

Bitte beachten sie die Lizenz zur Verwertung und Weitergabe der Daten:
http://creativecommons.org/licenses/by-nc-sa/3.0/deed.de

zurück zur Übersicht der Archivdaten (Monats und Tagesdaten)

Cookies helfen bei der Bereitstellung von Inhalten. Durch die Nutzung dieser Seiten erklärst du dich damit einverstanden, dass Cookies auf deinem Rechner gespeichert werden. Weitere Information